createdAt,value
2023-03-15T00:00:56.425Z,6.08
2023-03-15T00:02:00.876Z,6.09
2023-03-15T00:03:04.252Z,6.09
2023-03-15T00:04:07.878Z,6.10
2023-03-15T00:05:15.351Z,6.09
2023-03-15T00:06:18.308Z,6.08
2023-03-15T00:07:26.058Z,6.07
2023-03-15T00:08:29.327Z,6.06
2023-03-15T00:09:32.185Z,6.07
2023-03-15T00:10:35.072Z,6.07
2023-03-15T00:11:38.082Z,6.09
2023-03-15T00:12:42.810Z,6.10
2023-03-15T00:13:46.393Z,6.10
2023-03-15T00:14:50.667Z,6.11
2023-03-15T00:15:58.084Z,6.14
2023-03-15T00:17:01.013Z,6.14
2023-03-15T00:18:04.404Z,6.13
2023-03-15T00:19:07.476Z,6.12
2023-03-15T00:20:12.280Z,6.13
2023-03-15T00:21:15.809Z,6.13
2023-03-15T00:22:18.605Z,6.11
2023-03-15T00:23:22.102Z,6.12
2023-03-15T00:24:25.308Z,6.11
2023-03-15T00:25:28.665Z,6.12
2023-03-15T00:26:31.573Z,6.14
2023-03-15T00:27:34.488Z,6.13
2023-03-15T00:28:37.436Z,6.13
2023-03-15T00:29:40.503Z,6.12
2023-03-15T00:30:44.229Z,6.12
2023-03-15T00:31:47.085Z,6.12
2023-03-15T00:32:53.917Z,6.12
2023-03-15T00:33:56.851Z,6.11
2023-03-15T00:34:59.691Z,6.09
2023-03-15T00:36:07.216Z,6.10
2023-03-15T00:37:11.552Z,6.09
2023-03-15T00:38:14.557Z,6.10
2023-03-15T00:39:18.641Z,6.09
2023-03-15T00:40:22.991Z,6.10
2023-03-15T00:41:25.932Z,6.11
2023-03-15T00:42:28.962Z,6.13
2023-03-15T00:43:31.890Z,6.12
2023-03-15T00:44:34.873Z,6.11
2023-03-15T00:45:37.878Z,6.10
2023-03-15T00:46:40.824Z,6.10
2023-03-15T00:47:43.851Z,6.10
2023-03-15T00:48:51.083Z,6.09
2023-03-15T00:49:54.539Z,6.09
2023-03-15T00:51:10.992Z,6.11
2023-03-15T00:52:13.914Z,6.09
2023-03-15T00:53:16.829Z,6.08
2023-03-15T00:54:19.650Z,6.09
2023-03-15T00:55:23.417Z,6.09
2023-03-15T00:56:28.154Z,6.07
2023-03-15T00:57:34.463Z,6.05
2023-03-15T00:58:37.803Z,6.06
2023-03-15T00:59:40.679Z,6.06
2023-03-15T01:00:43.608Z,6.06
2023-03-15T01:01:46.510Z,6.08
2023-03-15T01:02:49.452Z,6.10
2023-03-15T01:03:52.808Z,6.10
2023-03-15T01:04:55.685Z,6.10
2023-03-15T01:05:58.524Z,6.08
2023-03-15T01:07:01.425Z,6.08
2023-03-15T01:08:04.610Z,6.08
2023-03-15T01:09:07.476Z,6.09
2023-03-15T01:10:10.971Z,6.09
2023-03-15T01:11:17.262Z,6.10
2023-03-15T01:12:20.212Z,6.10
2023-03-15T01:13:24.220Z,6.10
2023-03-15T01:14:27.172Z,6.09
2023-03-15T01:15:30.053Z,6.09
2023-03-15T01:16:35.078Z,6.07
2023-03-15T01:17:38.611Z,6.07
2023-03-15T01:18:42.383Z,6.07
2023-03-15T01:19:45.461Z,6.08
2023-03-15T01:20:48.613Z,6.06
2023-03-15T01:21:51.505Z,6.05
2023-03-15T01:22:54.377Z,6.06
2023-03-15T01:23:57.230Z,6.04
2023-03-15T01:25:00.122Z,6.01
2023-03-15T01:26:05.290Z,6.00
2023-03-15T01:27:08.365Z,6.01
2023-03-15T01:28:11.315Z,6.01
2023-03-15T01:29:15.045Z,5.96
2023-03-15T01:30:18.111Z,5.95
2023-03-15T01:31:42.983Z,5.96
2023-03-15T01:32:46.246Z,5.97
2023-03-15T01:33:49.647Z,5.98
2023-03-15T01:34:52.495Z,5.99
2023-03-15T01:36:07.314Z,6.00
2023-03-15T01:37:14.625Z,6.00
2023-03-15T01:38:19.917Z,5.99
2023-03-15T01:39:22.773Z,5.99
2023-03-15T01:40:25.742Z,6.00
2023-03-15T01:41:28.938Z,5.99
2023-03-15T01:42:32.599Z,5.99
2023-03-15T01:43:36.287Z,5.98
2023-03-15T01:44:54.121Z,5.98
2023-03-15T01:45:59.642Z,5.97
2023-03-15T01:47:03.611Z,5.96
2023-03-15T01:48:09.345Z,5.97
2023-03-15T01:49:15.184Z,5.96
2023-03-15T01:50:20.022Z,5.97
2023-03-15T01:51:35.325Z,5.96
2023-03-15T01:52:41.483Z,5.94
2023-03-15T01:54:07.723Z,5.92
2023-03-15T01:55:15.313Z,5.92
2023-03-15T01:56:33.312Z,5.91
2023-03-15T01:57:41.703Z,5.90
2023-03-15T01:58:47.847Z,5.90
2023-03-15T02:00:02.143Z,5.91
2023-03-15T02:01:06.306Z,5.91
2023-03-15T02:02:14.684Z,5.91
2023-03-15T02:03:23.298Z,5.92
2023-03-15T02:04:47.298Z,5.92
2023-03-15T02:05:59.259Z,5.92
2023-03-15T02:07:18.758Z,5.90
2023-03-15T02:08:25.418Z,5.91
2023-03-15T02:09:41.950Z,5.90
2023-03-15T02:10:48.123Z,5.90
2023-03-15T02:11:51.726Z,5.89
2023-03-15T02:12:57.282Z,5.86
2023-03-15T02:14:02.404Z,5.83
2023-03-15T02:15:07.913Z,5.82
2023-03-15T02:16:11.642Z,5.82
2023-03-15T02:17:25.264Z,5.82
2023-03-15T02:18:28.396Z,5.80
2023-03-15T02:19:46.019Z,5.80
2023-03-15T02:21:22.858Z,5.79
2023-03-15T02:23:05.618Z,5.77
2023-03-15T02:24:26.084Z,5.77
2023-03-15T02:25:46.936Z,5.77
2023-03-15T02:26:57.238Z,5.75
2023-03-15T02:28:03.454Z,5.76
2023-03-15T02:29:06.484Z,5.74
2023-03-15T02:30:11.807Z,5.74
2023-03-15T02:31:15.552Z,5.75
2023-03-15T02:32:18.447Z,5.75
2023-03-15T02:33:42.751Z,5.76
2023-03-15T02:34:45.702Z,5.77
2023-03-15T02:35:48.744Z,5.77
2023-03-15T02:36:54.984Z,5.77
2023-03-15T02:37:59.127Z,5.78
2023-03-15T02:39:12.798Z,5.77
2023-03-15T02:40:20.275Z,5.76
2023-03-15T02:41:42.650Z,5.74
2023-03-15T02:42:48.723Z,5.71
2023-03-15T02:43:55.309Z,5.70
2023-03-15T02:44:59.086Z,5.70
2023-03-15T02:46:04.257Z,5.69
2023-03-15T02:47:21.659Z,5.69
2023-03-15T02:48:24.997Z,5.66
2023-03-15T02:49:31.421Z,5.65
2023-03-15T02:50:34.350Z,5.66
2023-03-15T02:51:37.377Z,5.64
2023-03-15T02:52:40.533Z,5.64
2023-03-15T02:53:43.401Z,5.63
2023-03-15T02:54:46.338Z,5.64
2023-03-15T02:55:49.483Z,5.63
2023-03-15T02:56:53.384Z,5.62
2023-03-15T02:57:56.453Z,5.61
2023-03-15T02:58:59.933Z,5.61
2023-03-15T03:00:13.330Z,5.60
2023-03-15T03:01:18.502Z,5.59
2023-03-15T03:02:22.046Z,5.58
2023-03-15T03:03:25.069Z,5.56
2023-03-15T03:04:28.567Z,5.56
2023-03-15T03:05:31.516Z,5.56
2023-03-15T03:06:34.482Z,5.54
2023-03-15T03:07:38.239Z,5.54
2023-03-15T03:08:47.444Z,5.54
2023-03-15T03:09:51.822Z,5.54
2023-03-15T03:10:55.386Z,5.52
2023-03-15T03:11:58.604Z,5.51
2023-03-15T03:13:02.017Z,5.52
2023-03-15T03:14:15.585Z,5.52
2023-03-15T03:15:19.492Z,5.51
2023-03-15T03:16:23.345Z,5.48
2023-03-15T03:17:26.390Z,5.46
2023-03-15T03:18:30.851Z,5.46
2023-03-15T03:19:33.845Z,5.46
2023-03-15T03:20:36.956Z,5.46
2023-03-15T03:21:43.419Z,5.43
2023-03-15T03:22:47.283Z,5.41
2023-03-15T03:23:50.162Z,5.40
2023-03-15T03:24:53.158Z,5.41
2023-03-15T03:25:57.970Z,5.39
2023-03-15T03:27:00.916Z,5.36
2023-03-15T03:28:05.831Z,5.34
2023-03-15T03:29:09.039Z,5.34
2023-03-15T03:30:14.244Z,5.34
2023-03-15T03:31:25.948Z,5.34
2023-03-15T03:32:29.568Z,5.35
2023-03-15T03:33:32.685Z,5.35
2023-03-15T03:34:36.656Z,5.36
2023-03-15T03:35:39.595Z,5.36
2023-03-15T03:36:43.890Z,5.35
2023-03-15T03:37:47.968Z,5.34
2023-03-15T03:38:54.781Z,5.35
2023-03-15T03:39:58.201Z,5.36
2023-03-15T03:41:01.806Z,5.34
2023-03-15T03:42:06.129Z,5.33
2023-03-15T03:43:09.909Z,5.32
2023-03-15T03:44:12.839Z,5.31
2023-03-15T03:45:16.078Z,5.30
2023-03-15T03:46:19.987Z,5.31
2023-03-15T03:47:25.760Z,5.29
2023-03-15T03:48:29.022Z,5.27
2023-03-15T03:49:32.129Z,5.27
2023-03-15T03:50:35.357Z,5.27
2023-03-15T03:51:38.669Z,5.25
2023-03-15T03:52:44.126Z,5.26
2023-03-15T03:53:51.497Z,5.25
2023-03-15T03:54:54.919Z,5.25
2023-03-15T03:55:57.857Z,5.25
2023-03-15T03:57:00.839Z,5.25
2023-03-15T03:58:07.370Z,5.24
2023-03-15T03:59:23.704Z,5.24
2023-03-15T04:00:32.018Z,5.26
2023-03-15T04:01:34.972Z,5.27
2023-03-15T04:02:38.181Z,5.28
2023-03-15T04:03:43.387Z,5.28
2023-03-15T04:04:50.628Z,5.28
2023-03-15T04:05:57.935Z,5.28
2023-03-15T04:07:01.126Z,5.29
2023-03-15T04:08:11.996Z,5.29
2023-03-15T04:09:16.695Z,5.29
2023-03-15T04:10:26.952Z,5.29
2023-03-15T04:11:30.217Z,5.29
2023-03-15T04:12:38.259Z,5.30
2023-03-15T04:13:41.481Z,5.31
2023-03-15T04:14:44.812Z,5.30
2023-03-15T04:15:48.876Z,5.30
2023-03-15T04:16:54.728Z,5.31
2023-03-15T04:17:58.754Z,5.28
2023-03-15T04:19:08.733Z,5.28
2023-03-15T04:20:13.141Z,5.26
2023-03-15T04:21:23.225Z,5.27
2023-03-15T04:22:29.924Z,5.24
2023-03-15T04:23:39.192Z,5.22
2023-03-15T04:24:58.420Z,5.19
2023-03-15T04:26:28.841Z,5.16
2023-03-15T04:28:03.055Z,5.14
2023-03-15T04:29:17.921Z,5.14
2023-03-15T04:30:31.893Z,5.14
2023-03-15T04:32:04.668Z,5.13
2023-03-15T04:33:32.914Z,5.12
2023-03-15T04:34:56.199Z,5.08
2023-03-15T04:36:18.964Z,5.08
2023-03-15T04:37:47.722Z,5.06
2023-03-15T04:39:13.613Z,5.04
2023-03-15T04:40:36.406Z,5.04
2023-03-15T04:42:09.352Z,4.98
2023-03-15T04:43:18.380Z,4.98
2023-03-15T04:44:49.526Z,4.95
2023-03-15T04:46:11.282Z,4.94
2023-03-15T04:47:33.122Z,4.93
2023-03-15T04:49:14.659Z,4.91
2023-03-15T04:50:40.810Z,4.90
2023-03-15T04:51:58.563Z,4.90
2023-03-15T04:53:14.632Z,4.89
2023-03-15T04:54:50.177Z,4.87
2023-03-15T04:56:09.730Z,4.85
2023-03-15T04:57:32.900Z,4.82
2023-03-15T04:58:48.531Z,4.81
2023-03-15T05:00:12.034Z,4.81
2023-03-15T05:01:30.677Z,4.81
2023-03-15T05:03:12.411Z,4.78
2023-03-15T05:04:32.407Z,4.78
2023-03-15T05:05:48.189Z,4.76
2023-03-15T05:07:15.549Z,4.76
2023-03-15T05:08:31.429Z,4.76
2023-03-15T05:09:48.122Z,4.76
2023-03-15T05:11:10.012Z,4.75
2023-03-15T05:12:34.846Z,4.75
2023-03-15T05:13:50.448Z,4.75
2023-03-15T05:14:54.360Z,4.76
2023-03-15T05:16:15.939Z,4.78
2023-03-15T05:17:37.442Z,4.78
2023-03-15T05:18:58.908Z,4.76
2023-03-15T05:20:34.694Z,4.75
2023-03-15T05:21:55.994Z,4.75
2023-03-15T05:23:15.946Z,4.74
2023-03-15T05:24:41.881Z,4.73
2023-03-15T05:26:00.920Z,4.73
2023-03-15T05:27:23.564Z,4.73
2023-03-15T05:28:45.464Z,4.72
2023-03-15T05:30:21.635Z,4.74
2023-03-15T05:31:43.355Z,4.74
2023-03-15T05:33:19.739Z,4.75
2023-03-15T05:34:55.338Z,4.76
2023-03-15T05:36:17.631Z,4.76
2023-03-15T05:37:43.747Z,4.79
2023-03-15T05:39:16.752Z,4.82
2023-03-15T05:40:38.360Z,4.83
2023-03-15T05:42:04.206Z,4.83
2023-03-15T05:43:27.548Z,4.84
2023-03-15T05:44:54.114Z,4.89
2023-03-15T05:45:59.879Z,4.94
2023-03-15T05:47:24.465Z,4.97
2023-03-15T05:48:42.871Z,5.00
2023-03-15T05:50:05.548Z,5.03
2023-03-15T05:51:30.083Z,5.05
2023-03-15T05:52:52.416Z,5.08
2023-03-15T05:54:07.920Z,5.10
2023-03-15T05:55:23.337Z,5.12
2023-03-15T05:56:46.336Z,5.15
2023-03-15T05:58:00.733Z,5.18
2023-03-15T05:59:29.157Z,5.20
2023-03-15T06:01:01.557Z,5.21
2023-03-15T06:02:21.635Z,5.23
2023-03-15T06:03:32.078Z,5.25
2023-03-15T06:04:39.658Z,5.27
2023-03-15T06:05:43.446Z,5.29
2023-03-15T06:06:51.438Z,5.28
2023-03-15T06:07:54.770Z,5.28
2023-03-15T06:08:57.816Z,5.28
2023-03-15T06:10:00.708Z,5.29
2023-03-15T06:11:03.714Z,5.28
2023-03-15T06:12:07.256Z,5.28
2023-03-15T06:13:10.307Z,5.28
2023-03-15T06:14:13.889Z,5.31
2023-03-15T06:15:28.006Z,5.33
2023-03-15T06:16:31.490Z,5.35
2023-03-15T06:17:35.154Z,5.36
2023-03-15T06:18:38.131Z,5.38
2023-03-15T06:19:41.035Z,5.41
2023-03-15T06:20:44.758Z,5.45
2023-03-15T06:21:49.988Z,5.50
2023-03-15T06:23:18.932Z,5.55
2023-03-15T06:24:22.944Z,5.59
2023-03-15T06:25:26.086Z,5.65
2023-03-15T06:26:28.957Z,5.69
2023-03-15T06:27:35.517Z,5.74
2023-03-15T06:28:38.720Z,5.79
2023-03-15T06:29:42.104Z,5.84
2023-03-15T06:30:45.806Z,5.89
2023-03-15T06:31:53.065Z,5.96
2023-03-15T06:33:04.336Z,6.03
2023-03-15T06:34:07.342Z,6.09
2023-03-15T06:35:10.444Z,6.17
2023-03-15T06:36:14.336Z,6.24
2023-03-15T06:37:28.843Z,6.28
2023-03-15T06:38:37.877Z,6.39
2023-03-15T06:39:42.155Z,6.53
2023-03-15T06:40:45.349Z,6.75
2023-03-15T06:41:48.265Z,6.96
2023-03-15T06:42:55.027Z,7.07
2023-03-15T06:43:58.082Z,7.12
2023-03-15T06:45:02.486Z,7.15
2023-03-15T06:46:06.000Z,7.15
2023-03-15T06:47:10.573Z,7.10
2023-03-15T06:48:15.191Z,7.06
2023-03-15T06:49:18.282Z,7.01
2023-03-15T06:50:21.244Z,6.96
2023-03-15T06:51:24.212Z,6.92
2023-03-15T06:52:27.311Z,6.92
2023-03-15T06:53:30.268Z,6.92
2023-03-15T06:54:33.303Z,6.94
2023-03-15T06:55:36.376Z,6.93
2023-03-15T06:56:39.855Z,6.90
2023-03-15T06:57:44.686Z,6.85
2023-03-15T06:58:47.851Z,6.81
2023-03-15T06:59:50.899Z,6.77
2023-03-15T07:00:53.758Z,6.73
2023-03-15T07:01:56.703Z,6.71
2023-03-15T07:02:59.702Z,6.68
2023-03-15T07:04:03.351Z,6.67
2023-03-15T07:05:07.044Z,6.66
2023-03-15T07:06:10.053Z,6.65
2023-03-15T07:07:13.607Z,6.64
2023-03-15T07:08:16.531Z,6.64
2023-03-15T07:09:19.966Z,6.62
2023-03-15T07:10:22.899Z,6.61
2023-03-15T07:11:25.750Z,6.60
2023-03-15T07:12:28.814Z,6.61
2023-03-15T07:13:31.722Z,6.58
2023-03-15T07:14:34.962Z,6.55
2023-03-15T07:15:37.984Z,6.52
2023-03-15T07:16:40.984Z,6.50
2023-03-15T07:17:43.857Z,6.50
2023-03-15T07:18:46.730Z,6.49
2023-03-15T07:19:56.304Z,6.46
2023-03-15T07:21:01.585Z,6.45
2023-03-15T07:22:04.657Z,6.44
2023-03-15T07:23:07.651Z,6.44
2023-03-15T07:24:10.580Z,6.44
2023-03-15T07:25:13.956Z,6.42
2023-03-15T07:26:16.936Z,6.43
2023-03-15T07:27:19.807Z,6.43
2023-03-15T07:28:25.074Z,6.44
2023-03-15T07:29:27.928Z,6.42
2023-03-15T07:30:30.880Z,6.39
2023-03-15T07:31:33.732Z,6.36
2023-03-15T07:32:36.725Z,6.36
2023-03-15T07:33:39.887Z,6.37
2023-03-15T07:34:43.030Z,6.40
2023-03-15T07:35:46.027Z,6.43
2023-03-15T07:36:48.929Z,6.48
2023-03-15T07:37:51.883Z,6.53
2023-03-15T07:38:54.986Z,6.56
2023-03-15T07:40:00.312Z,6.57
2023-03-15T07:41:05.992Z,6.57
2023-03-15T07:42:09.233Z,6.58
2023-03-15T07:43:19.525Z,6.58
2023-03-15T07:44:25.857Z,6.59
2023-03-15T07:45:28.715Z,6.60
2023-03-15T07:46:31.811Z,6.62
2023-03-15T07:47:34.841Z,6.64
2023-03-15T07:48:37.951Z,6.63
2023-03-15T07:49:41.039Z,6.62
2023-03-15T07:50:45.538Z,6.61
2023-03-15T07:51:48.553Z,6.62
2023-03-15T07:52:51.548Z,6.60
2023-03-15T07:53:54.566Z,6.60
2023-03-15T07:54:57.756Z,6.64
2023-03-15T07:56:01.369Z,6.70
2023-03-15T07:57:04.657Z,6.76
2023-03-15T07:58:08.043Z,6.79
2023-03-15T07:59:11.130Z,6.83
2023-03-15T08:00:14.608Z,6.88
2023-03-15T08:01:17.478Z,6.94
2023-03-15T08:02:20.795Z,7.00
2023-03-15T08:03:26.914Z,7.04
2023-03-15T08:04:30.040Z,7.11
2023-03-15T08:05:34.199Z,7.15
2023-03-15T08:06:37.015Z,7.17
2023-03-15T08:07:40.084Z,7.18
2023-03-15T08:08:42.918Z,7.19
2023-03-15T08:09:46.371Z,7.20
2023-03-15T08:10:49.703Z,7.22
2023-03-15T08:11:52.683Z,7.24
2023-03-15T08:12:55.603Z,7.24
2023-03-15T08:13:58.523Z,7.25
2023-03-15T08:15:01.290Z,7.24
2023-03-15T08:16:04.689Z,7.24
2023-03-15T08:17:12.450Z,7.23
2023-03-15T08:18:15.363Z,7.22
2023-03-15T08:19:18.871Z,7.22
2023-03-15T08:20:22.534Z,7.21
2023-03-15T08:21:25.394Z,7.20
2023-03-15T08:22:28.321Z,7.20
2023-03-15T08:23:31.319Z,7.23
2023-03-15T08:24:35.078Z,7.28
2023-03-15T08:25:40.978Z,7.33
2023-03-15T08:26:44.072Z,7.38
2023-03-15T08:27:48.126Z,7.41
2023-03-15T08:28:50.949Z,7.44
2023-03-15T08:29:53.857Z,7.44
2023-03-15T08:30:56.760Z,7.46
2023-03-15T08:31:59.660Z,7.46
2023-03-15T08:33:03.773Z,7.44
2023-03-15T08:34:07.477Z,7.42
2023-03-15T08:35:15.478Z,7.40
2023-03-15T08:36:19.739Z,7.39
2023-03-15T08:37:22.769Z,7.39
2023-03-15T08:38:26.316Z,7.37
2023-03-15T08:39:29.227Z,7.34
2023-03-15T08:40:32.146Z,7.31
2023-03-15T08:41:35.419Z,7.27
2023-03-15T08:42:38.742Z,7.27
2023-03-15T08:43:41.635Z,7.26
2023-03-15T08:44:44.425Z,7.26
2023-03-15T08:46:00.160Z,7.27
2023-03-15T08:47:05.365Z,7.27
2023-03-15T08:48:08.269Z,7.28
2023-03-15T08:49:11.094Z,7.29
2023-03-15T08:50:16.507Z,7.33
2023-03-15T08:51:21.348Z,7.33
2023-03-15T08:52:24.234Z,7.32
2023-03-15T08:53:27.159Z,7.34
2023-03-15T08:54:30.024Z,7.40
2023-03-15T08:55:33.031Z,7.45
2023-03-15T08:56:36.076Z,7.47
2023-03-15T08:57:39.423Z,7.50
2023-03-15T08:58:42.485Z,7.54
2023-03-15T08:59:45.720Z,7.60
2023-03-15T09:00:51.572Z,7.67
2023-03-15T09:01:54.441Z,7.71
2023-03-15T09:02:57.355Z,7.76
2023-03-15T09:04:01.368Z,7.79
2023-03-15T09:05:07.140Z,7.81
2023-03-15T09:06:10.514Z,7.83
2023-03-15T09:07:13.869Z,7.84
2023-03-15T09:08:21.019Z,7.87
2023-03-15T09:09:23.894Z,7.93
2023-03-15T09:10:26.834Z,7.98
2023-03-15T09:11:29.719Z,8.01
2023-03-15T09:12:32.569Z,8.05
2023-03-15T09:13:35.433Z,8.10
2023-03-15T09:14:38.406Z,8.12
2023-03-15T09:15:41.256Z,8.10
2023-03-15T09:16:44.307Z,8.12
2023-03-15T09:17:50.309Z,8.05
2023-03-15T09:18:53.263Z,7.91
2023-03-15T09:19:59.391Z,7.73
2023-03-15T09:21:02.329Z,7.55
2023-03-15T09:22:16.270Z,7.38
2023-03-15T09:23:26.524Z,7.18
2023-03-15T09:24:29.599Z,7.04
2023-03-15T09:25:32.755Z,6.95
2023-03-15T09:26:35.560Z,6.91
2023-03-15T09:27:38.578Z,6.96
2023-03-15T09:28:41.479Z,7.11
2023-03-15T09:29:44.280Z,7.29
2023-03-15T09:30:47.185Z,7.44
2023-03-15T09:31:50.082Z,7.55
2023-03-15T09:32:53.226Z,7.65
2023-03-15T09:33:56.817Z,7.75
2023-03-15T09:34:59.656Z,7.85
2023-03-15T09:36:02.709Z,7.97
2023-03-15T09:37:05.520Z,8.08
2023-03-15T09:38:09.064Z,8.17
2023-03-15T09:39:12.050Z,8.22
2023-03-15T09:40:18.015Z,8.23
2023-03-15T09:41:56.691Z,8.16
2023-03-15T09:43:14.340Z,7.98
2023-03-15T09:44:19.985Z,7.88
2023-03-15T09:45:41.675Z,7.84
2023-03-15T09:46:50.239Z,7.82
2023-03-15T09:48:08.122Z,7.84
2023-03-15T09:49:41.368Z,8.01
2023-03-15T09:50:54.268Z,8.26
2023-03-15T09:52:14.594Z,8.47
2023-03-15T09:53:17.776Z,8.62
2023-03-15T09:54:28.838Z,8.61
2023-03-15T09:55:32.439Z,8.53
2023-03-15T09:57:09.507Z,8.44
2023-03-15T09:58:19.407Z,8.29
2023-03-15T09:59:30.144Z,8.17
2023-03-15T10:00:41.482Z,8.06
2023-03-15T10:01:45.827Z,7.97
2023-03-15T10:03:02.310Z,7.90
2023-03-15T10:04:16.824Z,7.83
2023-03-15T10:05:32.196Z,7.75
2023-03-15T10:06:38.040Z,7.69
2023-03-15T10:07:41.326Z,7.71
2023-03-15T10:08:46.947Z,7.81
2023-03-15T10:09:50.040Z,8.03
2023-03-15T10:11:08.811Z,8.27
2023-03-15T10:12:17.176Z,8.52
2023-03-15T10:13:50.970Z,8.71
2023-03-15T10:15:31.615Z,8.94
2023-03-15T10:16:48.970Z,9.10
2023-03-15T10:18:05.637Z,9.19
2023-03-15T10:19:22.998Z,9.28
2023-03-15T10:20:34.237Z,9.36
2023-03-15T10:21:44.182Z,9.46
2023-03-15T10:22:51.276Z,9.44
2023-03-15T10:23:55.031Z,9.32
2023-03-15T10:25:26.402Z,9.19
2023-03-15T10:26:36.390Z,9.01
2023-03-15T10:27:52.000Z,8.90
2023-03-15T10:28:55.387Z,8.81
2023-03-15T10:30:00.089Z,8.78
2023-03-15T10:31:22.368Z,8.76
2023-03-15T10:32:34.438Z,8.74
2023-03-15T10:33:39.016Z,8.73
2023-03-15T10:34:41.908Z,8.70
2023-03-15T10:35:45.203Z,8.66
2023-03-15T10:36:50.235Z,8.67
2023-03-15T10:37:56.135Z,8.57
2023-03-15T10:38:58.934Z,8.47
2023-03-15T10:40:01.798Z,8.40
2023-03-15T10:41:06.348Z,8.33
2023-03-15T10:42:25.061Z,8.24
2023-03-15T10:43:32.041Z,8.17
2023-03-15T10:44:37.940Z,8.12
2023-03-15T10:45:40.819Z,8.08
2023-03-15T10:47:04.645Z,8.04
2023-03-15T10:48:13.843Z,8.01
2023-03-15T10:49:16.885Z,7.99
2023-03-15T10:50:37.002Z,7.96
2023-03-15T10:51:45.892Z,7.92
2023-03-15T10:52:51.274Z,7.89
2023-03-15T10:53:57.459Z,7.85
2023-03-15T10:55:04.973Z,7.82
2023-03-15T10:56:21.221Z,7.77
2023-03-15T10:57:28.720Z,7.72
2023-03-15T10:59:01.679Z,7.71
2023-03-15T11:00:37.710Z,7.67
2023-03-15T11:01:40.779Z,7.58
2023-03-15T11:03:03.240Z,7.53
2023-03-15T11:04:09.146Z,7.53
2023-03-15T11:05:14.639Z,7.54
2023-03-15T11:06:26.151Z,7.45
2023-03-15T11:07:29.276Z,7.38
2023-03-15T11:08:41.238Z,7.37
2023-03-15T11:09:58.874Z,7.35
2023-03-15T11:11:01.960Z,7.35
2023-03-15T11:12:07.729Z,7.37
2023-03-15T11:13:20.982Z,7.33
2023-03-15T11:14:25.326Z,7.29
2023-03-15T11:15:29.262Z,7.29
2023-03-15T11:16:37.742Z,7.33
2023-03-15T11:17:46.860Z,7.41
2023-03-15T11:19:01.586Z,7.51
2023-03-15T11:20:19.989Z,7.65
2023-03-15T11:21:33.658Z,7.82
2023-03-15T11:22:36.521Z,7.96
2023-03-15T11:23:46.052Z,8.07
2023-03-15T11:24:49.452Z,8.21
2023-03-15T11:25:54.080Z,8.34
2023-03-15T11:27:03.791Z,8.45
2023-03-15T11:28:11.058Z,8.59
2023-03-15T11:29:24.861Z,8.73
2023-03-15T11:30:31.408Z,8.88
2023-03-15T11:31:35.847Z,9.04
2023-03-15T11:32:39.821Z,9.18
2023-03-15T11:33:53.751Z,9.31
2023-03-15T11:35:33.527Z,9.42
2023-03-15T11:36:41.431Z,9.50
2023-03-15T11:38:03.165Z,9.53
2023-03-15T11:39:18.184Z,9.51
2023-03-15T11:40:23.173Z,9.56
2023-03-15T11:41:51.586Z,9.61
2023-03-15T11:42:59.916Z,9.61
2023-03-15T11:44:28.782Z,9.53
2023-03-15T11:45:58.544Z,9.37
2023-03-15T11:47:53.036Z,9.29
2023-03-15T11:49:19.426Z,9.37
2023-03-15T11:50:22.537Z,9.48
2023-03-15T11:51:25.492Z,9.51
2023-03-15T11:52:29.768Z,9.54
2023-03-15T11:53:38.642Z,9.57
2023-03-15T11:54:41.546Z,9.63
2023-03-15T11:55:50.331Z,9.74
2023-03-15T11:57:01.507Z,9.87
2023-03-15T11:58:28.167Z,10.04
2023-03-15T11:59:33.792Z,10.32
2023-03-15T12:00:37.880Z,10.54
2023-03-15T12:01:54.953Z,10.72
2023-03-15T12:03:19.503Z,10.82
2023-03-15T12:04:25.763Z,10.92
2023-03-15T12:05:45.721Z,11.01
2023-03-15T12:06:48.784Z,11.13
2023-03-15T12:07:59.429Z,11.16
2023-03-15T12:09:24.819Z,11.22
2023-03-15T12:10:33.182Z,11.32
2023-03-15T12:11:38.714Z,11.41
2023-03-15T12:12:46.354Z,11.53
2023-03-15T12:14:25.509Z,11.65
2023-03-15T12:15:28.352Z,11.78
2023-03-15T12:16:39.239Z,11.93
2023-03-15T12:17:49.960Z,12.11
2023-03-15T12:18:54.282Z,12.31
2023-03-15T12:20:21.406Z,12.49
2023-03-15T12:21:38.882Z,12.55
2023-03-15T12:22:48.417Z,12.56
2023-03-15T12:24:03.919Z,12.50
2023-03-15T12:25:15.438Z,12.36
2023-03-15T12:26:27.034Z,12.20
2023-03-15T12:27:30.733Z,11.95
2023-03-15T12:29:08.997Z,11.78
2023-03-15T12:30:23.561Z,11.76
2023-03-15T12:31:42.272Z,11.67
2023-03-15T12:32:50.497Z,11.70
2023-03-15T12:33:58.564Z,11.80
2023-03-15T12:35:16.156Z,11.98
2023-03-15T12:36:32.196Z,12.22
2023-03-15T12:37:37.963Z,12.50
2023-03-15T12:38:41.940Z,12.77
2023-03-15T12:39:48.257Z,13.04
2023-03-15T12:40:52.819Z,13.31
2023-03-15T12:41:55.696Z,13.50
2023-03-15T12:43:03.243Z,13.72
2023-03-15T12:44:18.683Z,13.94
2023-03-15T12:45:27.592Z,14.16
2023-03-15T12:46:36.854Z,14.32
2023-03-15T12:47:52.163Z,14.51
2023-03-15T12:49:12.164Z,14.70
2023-03-15T12:50:45.878Z,14.86
2023-03-15T12:51:59.598Z,15.02
2023-03-15T12:53:13.194Z,15.16
2023-03-15T12:54:16.425Z,15.36
2023-03-15T12:55:19.675Z,15.56
2023-03-15T12:56:32.783Z,15.67
2023-03-15T12:57:56.450Z,15.51
2023-03-15T12:59:05.778Z,15.22
2023-03-15T13:00:18.739Z,15.08
2023-03-15T13:01:25.718Z,14.97
2023-03-15T13:02:42.140Z,14.98
2023-03-15T13:03:46.347Z,15.04
2023-03-15T13:04:49.718Z,15.12
2023-03-15T13:06:06.127Z,15.21
2023-03-15T13:07:48.957Z,15.39
2023-03-15T13:09:00.996Z,15.72
2023-03-15T13:10:27.061Z,15.91
2023-03-15T13:11:43.240Z,15.91
2023-03-15T13:13:00.726Z,15.94
2023-03-15T13:14:33.530Z,16.07
2023-03-15T13:15:55.800Z,16.23
2023-03-15T13:17:17.371Z,16.41
2023-03-15T13:18:24.705Z,16.68
2023-03-15T13:19:32.966Z,16.85
2023-03-15T13:21:21.191Z,16.92
2023-03-15T13:22:54.955Z,16.92
2023-03-15T13:23:59.865Z,16.93
2023-03-15T13:25:16.162Z,16.96
2023-03-15T13:26:48.915Z,16.87
2023-03-15T13:27:58.914Z,16.65
2023-03-15T13:29:22.500Z,16.42
2023-03-15T13:30:28.129Z,16.08
2023-03-15T13:31:31.750Z,15.81
2023-03-15T13:32:35.388Z,15.45
2023-03-15T13:33:38.645Z,15.07
2023-03-15T13:34:44.639Z,14.70
2023-03-15T13:35:55.314Z,14.45
2023-03-15T13:37:00.316Z,14.33
2023-03-15T13:38:22.331Z,14.19
2023-03-15T13:39:28.193Z,13.96
2023-03-15T13:40:31.327Z,13.77
2023-03-15T13:41:34.252Z,13.68
2023-03-15T13:42:41.194Z,13.82
2023-03-15T13:43:44.942Z,14.00
2023-03-15T13:45:03.455Z,14.21
2023-03-15T13:46:06.430Z,14.36
2023-03-15T13:47:09.618Z,14.35
2023-03-15T13:48:13.389Z,14.18
2023-03-15T13:49:17.393Z,13.90
2023-03-15T13:50:21.558Z,13.63
2023-03-15T13:51:31.855Z,13.37
2023-03-15T13:52:35.139Z,13.15
2023-03-15T13:53:49.781Z,13.08
2023-03-15T13:54:54.065Z,13.31
2023-03-15T13:55:57.282Z,13.61
2023-03-15T13:57:13.411Z,13.94
2023-03-15T13:58:16.554Z,14.40
2023-03-15T13:59:19.529Z,14.83
2023-03-15T14:00:23.469Z,15.24
2023-03-15T14:01:27.286Z,15.46
2023-03-15T14:02:55.168Z,15.56
2023-03-15T14:04:02.295Z,15.83
2023-03-15T14:05:09.531Z,16.03
2023-03-15T14:06:22.788Z,16.39
2023-03-15T14:07:28.013Z,16.56
2023-03-15T14:08:35.367Z,16.74
2023-03-15T14:09:39.971Z,16.92
2023-03-15T14:10:42.961Z,17.16
2023-03-15T14:11:45.880Z,17.24
2023-03-15T14:12:51.000Z,17.33
2023-03-15T14:13:59.592Z,17.29
2023-03-15T14:15:03.290Z,17.36
2023-03-15T14:16:14.192Z,17.36
2023-03-15T14:17:37.416Z,17.19
2023-03-15T14:18:43.071Z,17.05
2023-03-15T14:19:59.534Z,16.85
2023-03-15T14:21:08.484Z,16.54
2023-03-15T14:22:20.902Z,16.22
2023-03-15T14:23:27.135Z,16.00
2023-03-15T14:24:33.764Z,16.03
2023-03-15T14:25:37.224Z,15.93
2023-03-15T14:26:40.782Z,15.91
2023-03-15T14:27:44.152Z,15.85
2023-03-15T14:28:55.064Z,15.66
2023-03-15T14:30:01.568Z,15.44
2023-03-15T14:31:04.683Z,15.19
2023-03-15T14:32:24.421Z,14.93
2023-03-15T14:33:33.083Z,14.52
2023-03-15T14:34:44.616Z,14.19
2023-03-15T14:35:47.557Z,13.83
2023-03-15T14:36:54.213Z,13.45
2023-03-15T14:38:21.271Z,13.06
2023-03-15T14:39:28.848Z,12.74
2023-03-15T14:40:35.803Z,12.51
2023-03-15T14:41:38.747Z,12.27
2023-03-15T14:42:42.788Z,11.99
2023-03-15T14:43:46.613Z,11.69
2023-03-15T14:44:49.918Z,11.44
2023-03-15T14:45:54.159Z,11.23
2023-03-15T14:46:57.864Z,11.04
2023-03-15T14:48:08.565Z,10.85
2023-03-15T14:49:26.416Z,10.65
2023-03-15T14:50:34.360Z,10.42
2023-03-15T14:51:37.246Z,10.24
2023-03-15T14:52:40.383Z,10.08
2023-03-15T14:53:44.666Z,9.92
2023-03-15T14:54:49.894Z,9.75
2023-03-15T14:55:53.006Z,9.61
2023-03-15T14:56:57.672Z,9.48
2023-03-15T14:58:04.437Z,9.39
2023-03-15T14:59:31.979Z,9.21
2023-03-15T15:00:44.145Z,9.11
2023-03-15T15:01:51.804Z,9.00
2023-03-15T15:02:57.413Z,8.88
2023-03-15T15:04:03.238Z,8.77
2023-03-15T15:05:29.372Z,8.65
2023-03-15T15:06:32.834Z,8.49
2023-03-15T15:07:36.072Z,8.38
2023-03-15T15:08:42.240Z,8.26
2023-03-15T15:09:50.167Z,8.14
2023-03-15T15:10:57.015Z,8.02
2023-03-15T15:11:59.887Z,7.94
2023-03-15T15:13:07.340Z,7.86